sensor_id;sensor_type;location;lat;lon;timestamp;P1;durP1;ratioP1;P2;durP2;ratioP2
30173;SDS011;16985;50.814;8.530;2023-04-25T00:01:05;6.00;;;3.75;;
30173;SDS011;16985;50.814;8.530;2023-04-25T00:03:31;7.75;;;5.22;;
30173;SDS011;16985;50.814;8.530;2023-04-25T00:06:00;8.63;;;3.70;;
30173;SDS011;16985;50.814;8.530;2023-04-25T00:08:29;5.93;;;3.47;;
30173;SDS011;16985;50.814;8.530;2023-04-25T00:10:56;7.63;;;3.60;;
30173;SDS011;16985;50.814;8.530;2023-04-25T00:13:22;10.95;;;4.07;;
30173;SDS011;16985;50.814;8.530;2023-04-25T00:15:48;15.05;;;4.40;;
30173;SDS011;16985;50.814;8.530;2023-04-25T00:18:15;8.32;;;4.30;;
30173;SDS011;16985;50.814;8.530;2023-04-25T00:20:41;7.50;;;4.97;;
30173;SDS011;16985;50.814;8.530;2023-04-25T00:23:11;10.57;;;6.90;;
30173;SDS011;16985;50.814;8.530;2023-04-25T00:25:42;19.35;;;6.70;;
30173;SDS011;16985;50.814;8.530;2023-04-25T00:28:10;14.70;;;7.22;;
30173;SDS011;16985;50.814;8.530;2023-04-25T00:30:39;13.52;;;7.28;;
30173;SDS011;16985;50.814;8.530;2023-04-25T00:33:06;16.08;;;6.72;;
30173;SDS011;16985;50.814;8.530;2023-04-25T00:35:33;15.90;;;7.07;;
30173;SDS011;16985;50.814;8.530;2023-04-25T00:37:59;13.23;;;6.65;;
30173;SDS011;16985;50.814;8.530;2023-04-25T00:40:25;13.43;;;6.93;;
30173;SDS011;16985;50.814;8.530;2023-04-25T00:42:51;12.82;;;7.72;;
30173;SDS011;16985;50.814;8.530;2023-04-25T00:45:18;14.93;;;7.60;;
30173;SDS011;16985;50.814;8.530;2023-04-25T00:47:44;10.05;;;6.82;;
30173;SDS011;16985;50.814;8.530;2023-04-25T00:50:11;13.70;;;6.13;;
30173;SDS011;16985;50.814;8.530;2023-04-25T00:52:41;16.05;;;7.43;;
30173;SDS011;16985;50.814;8.530;2023-04-25T00:55:09;16.48;;;7.45;;
30173;SDS011;16985;50.814;8.530;2023-04-25T00:57:36;14.40;;;8.15;;
30173;SDS011;16985;50.814;8.530;2023-04-25T01:00:05;16.70;;;7.85;;
30173;SDS011;16985;50.814;8.530;2023-04-25T01:02:34;14.32;;;6.40;;
30173;SDS011;16985;50.814;8.530;2023-04-25T01:05:01;11.60;;;6.05;;
30173;SDS011;16985;50.814;8.530;2023-04-25T01:07:28;10.23;;;5.45;;
30173;SDS011;16985;50.814;8.530;2023-04-25T01:09:55;14.90;;;5.72;;
30173;SDS011;16985;50.814;8.530;2023-04-25T01:12:24;14.10;;;7.00;;
30173;SDS011;16985;50.814;8.530;2023-04-25T01:14:50;17.73;;;5.80;;
30173;SDS011;16985;50.814;8.530;2023-04-25T01:17:17;17.20;;;6.13;;
30173;SDS011;16985;50.814;8.530;2023-04-25T01:19:44;9.38;;;5.18;;
30173;SDS011;16985;50.814;8.530;2023-04-25T01:22:17;14.05;;;5.07;;
30173;SDS011;16985;50.814;8.530;2023-04-25T01:24:43;14.20;;;5.28;;
30173;SDS011;16985;50.814;8.530;2023-04-25T01:27:09;15.95;;;4.93;;
30173;SDS011;16985;50.814;8.530;2023-04-25T01:29:36;13.40;;;5.88;;
30173;SDS011;16985;50.814;8.530;2023-04-25T01:32:02;13.88;;;6.38;;
30173;SDS011;16985;50.814;8.530;2023-04-25T01:34:28;11.38;;;6.03;;
30173;SDS011;16985;50.814;8.530;2023-04-25T01:36:57;13.45;;;5.93;;
30173;SDS011;16985;50.814;8.530;2023-04-25T01:39:27;12.60;;;5.40;;
30173;SDS011;16985;50.814;8.530;2023-04-25T01:41:53;10.50;;;5.47;;
30173;SDS011;16985;50.814;8.530;2023-04-25T01:44:19;16.27;;;5.93;;
30173;SDS011;16985;50.814;8.530;2023-04-25T01:46:45;8.05;;;4.97;;
30173;SDS011;16985;50.814;8.530;2023-04-25T01:49:11;17.67;;;5.40;;
30173;SDS011;16985;50.814;8.530;2023-04-25T01:51:37;17.38;;;6.35;;
30173;SDS011;16985;50.814;8.530;2023-04-25T01:54:03;9.57;;;5.80;;
30173;SDS011;16985;50.814;8.530;2023-04-25T01:56:30;14.35;;;5.80;;
30173;SDS011;16985;50.814;8.530;2023-04-25T01:58:57;15.52;;;5.40;;
30173;SDS011;16985;50.814;8.530;2023-04-25T02:01:59;12.77;;;6.13;;
30173;SDS011;16985;50.814;8.530;2023-04-25T02:04:30;13.18;;;6.10;;
30173;SDS011;16985;50.814;8.530;2023-04-25T02:06:56;19.42;;;6.43;;
30173;SDS011;16985;50.814;8.530;2023-04-25T02:09:23;16.55;;;6.40;;
30173;SDS011;16985;50.814;8.530;2023-04-25T02:11:53;15.15;;;6.10;;
30173;SDS011;16985;50.814;8.530;2023-04-25T02:14:38;15.50;;;7.03;;
30173;SDS011;16985;50.814;8.530;2023-04-25T02:17:14;17.75;;;7.28;;
30173;SDS011;16985;50.814;8.530;2023-04-25T02:19:41;16.83;;;6.35;;
30173;SDS011;16985;50.814;8.530;2023-04-25T02:22:06;13.07;;;5.85;;
30173;SDS011;16985;50.814;8.530;2023-04-25T02:24:47;14.48;;;6.20;;
30173;SDS011;16985;50.814;8.530;2023-04-25T02:27:13;13.68;;;6.18;;
30173;SDS011;16985;50.814;8.530;2023-04-25T02:29:39;15.43;;;6.50;;
30173;SDS011;16985;50.814;8.530;2023-04-25T02:32:04;17.75;;;6.28;;
30173;SDS011;16985;50.814;8.530;2023-04-25T02:34:30;11.85;;;6.25;;
30173;SDS011;16985;50.814;8.530;2023-04-25T02:36:59;13.48;;;5.97;;
30173;SDS011;16985;50.814;8.530;2023-04-25T02:39:25;8.95;;;5.38;;
30173;SDS011;16985;50.814;8.530;2023-04-25T02:41:52;14.52;;;5.65;;
30173;SDS011;16985;50.814;8.530;2023-04-25T02:44:32;15.75;;;6.80;;
30173;SDS011;16985;50.814;8.530;2023-04-25T02:46:58;10.80;;;5.95;;
30173;SDS011;16985;50.814;8.530;2023-04-25T02:49:24;9.73;;;6.05;;
30173;SDS011;16985;50.814;8.530;2023-04-25T02:51:51;15.55;;;5.78;;
30173;SDS011;16985;50.814;8.530;2023-04-25T02:54:17;9.13;;;4.88;;
30173;SDS011;16985;50.814;8.530;2023-04-25T02:56:46;15.07;;;6.13;;
30173;SDS011;16985;50.814;8.530;2023-04-25T02:59:17;13.27;;;5.30;;
30173;SDS011;16985;50.814;8.530;2023-04-25T03:01:43;13.32;;;5.03;;
30173;SDS011;16985;50.814;8.530;2023-04-25T03:04:09;10.30;;;5.00;;
30173;SDS011;16985;50.814;8.530;2023-04-25T03:06:35;12.93;;;4.95;;
30173;SDS011;16985;50.814;8.530;2023-04-25T03:09:00;10.68;;;4.45;;
30173;SDS011;16985;50.814;8.530;2023-04-25T03:11:26;10.18;;;4.05;;
30173;SDS011;16985;50.814;8.530;2023-04-25T03:13:53;10.20;;;5.18;;
30173;SDS011;16985;50.814;8.530;2023-04-25T03:16:19;10.80;;;4.85;;
30173;SDS011;16985;50.814;8.530;2023-04-25T03:18:45;10.77;;;5.22;;
30173;SDS011;16985;50.814;8.530;2023-04-25T03:21:25;8.02;;;5.28;;
30173;SDS011;16985;50.814;8.530;2023-04-25T03:23:51;10.40;;;6.15;;
30173;SDS011;16985;50.814;8.530;2023-04-25T03:26:32;10.50;;;5.70;;
30173;SDS011;16985;50.814;8.530;2023-04-25T03:28:58;12.45;;;6.63;;
30173;SDS011;16985;50.814;8.530;2023-04-25T03:31:24;17.67;;;7.25;;
30173;SDS011;16985;50.814;8.530;2023-04-25T03:33:50;12.70;;;6.88;;
30173;SDS011;16985;50.814;8.530;2023-04-25T03:38:45;13.30;;;7.53;;
30173;SDS011;16985;50.814;8.530;2023-04-25T03:41:13;12.63;;;6.47;;
30173;SDS011;16985;50.814;8.530;2023-04-25T03:43:55;12.93;;;7.07;;
30173;SDS011;16985;50.814;8.530;2023-04-25T03:46:20;12.80;;;7.05;;
30173;SDS011;16985;50.814;8.530;2023-04-25T03:48:47;11.43;;;6.35;;
30173;SDS011;16985;50.814;8.530;2023-04-25T03:51:45;17.85;;;6.80;;
30173;SDS011;16985;50.814;8.530;2023-04-25T03:54:11;14.25;;;6.38;;
30173;SDS011;16985;50.814;8.530;2023-04-25T03:56:52;10.70;;;5.97;;
30173;SDS011;16985;50.814;8.530;2023-04-25T03:59:21;11.68;;;6.25;;
30173;SDS011;16985;50.814;8.530;2023-04-25T04:01:47;12.90;;;6.25;;
30173;SDS011;16985;50.814;8.530;2023-04-25T04:04:13;12.40;;;5.68;;
30173;SDS011;16985;50.814;8.530;2023-04-25T04:06:39;16.63;;;6.75;;
30173;SDS011;16985;50.814;8.530;2023-04-25T04:09:15;12.60;;;5.88;;
30173;SDS011;16985;50.814;8.530;2023-04-25T04:11:43;13.23;;;6.40;;
30173;SDS011;16985;50.814;8.530;2023-04-25T04:14:08;11.43;;;5.45;;
30173;SDS011;16985;50.814;8.530;2023-04-25T04:16:37;9.60;;;6.35;;
30173;SDS011;16985;50.814;8.530;2023-04-25T04:19:03;12.65;;;6.30;;
30173;SDS011;16985;50.814;8.530;2023-04-25T04:21:30;15.10;;;6.90;;
30173;SDS011;16985;50.814;8.530;2023-04-25T04:23:57;15.13;;;5.85;;
30173;SDS011;16985;50.814;8.530;2023-04-25T04:26:25;12.60;;;6.78;;
30173;SDS011;16985;50.814;8.530;2023-04-25T04:29:26;9.45;;;6.03;;
30173;SDS011;16985;50.814;8.530;2023-04-25T04:32:07;11.18;;;5.88;;
30173;SDS011;16985;50.814;8.530;2023-04-25T04:34:34;12.55;;;7.28;;
30173;SDS011;16985;50.814;8.530;2023-04-25T04:37:01;13.88;;;6.75;;
30173;SDS011;16985;50.814;8.530;2023-04-25T04:39:27;9.48;;;5.63;;
30173;SDS011;16985;50.814;8.530;2023-04-25T04:42:02;16.88;;;7.38;;
30173;SDS011;16985;50.814;8.530;2023-04-25T04:44:52;12.32;;;6.63;;
30173;SDS011;16985;50.814;8.530;2023-04-25T04:47:25;12.57;;;6.38;;
30173;SDS011;16985;50.814;8.530;2023-04-25T04:50:11;16.17;;;5.85;;
30173;SDS011;16985;50.814;8.530;2023-04-25T04:52:55;17.23;;;6.13;;
30173;SDS011;16985;50.814;8.530;2023-04-25T04:55:44;12.65;;;5.93;;
30173;SDS011;16985;50.814;8.530;2023-04-25T04:58:29;14.73;;;6.22;;
30173;SDS011;16985;50.814;8.530;2023-04-25T05:01:14;12.10;;;6.55;;
30173;SDS011;16985;50.814;8.530;2023-04-25T05:04:03;11.27;;;6.53;;
30173;SDS011;16985;50.814;8.530;2023-04-25T05:06:58;16.45;;;7.13;;
30173;SDS011;16985;50.814;8.530;2023-04-25T05:09:26;11.57;;;6.40;;
30173;SDS011;16985;50.814;8.530;2023-04-25T05:12:15;12.75;;;6.38;;
30173;SDS011;16985;50.814;8.530;2023-04-25T05:14:53;12.33;;;7.27;;
30173;SDS011;16985;50.814;8.530;2023-04-25T05:17:48;14.27;;;8.50;;
30173;SDS011;16985;50.814;8.530;2023-04-25T05:20:23;16.17;;;7.05;;
30173;SDS011;16985;50.814;8.530;2023-04-25T05:23:15;13.75;;;7.15;;
30173;SDS011;16985;50.814;8.530;2023-04-25T05:25:52;13.32;;;7.20;;
30173;SDS011;16985;50.814;8.530;2023-04-25T05:28:40;15.73;;;6.55;;
30173;SDS011;16985;50.814;8.530;2023-04-25T05:31:27;13.40;;;7.75;;
30173;SDS011;16985;50.814;8.530;2023-04-25T05:34:04;11.27;;;6.38;;
30173;SDS011;16985;50.814;8.530;2023-04-25T05:36:53;12.32;;;6.47;;
30173;SDS011;16985;50.814;8.530;2023-04-25T05:39:19;14.05;;;7.15;;
30173;SDS011;16985;50.814;8.530;2023-04-25T05:42:06;15.32;;;6.45;;
30173;SDS011;16985;50.814;8.530;2023-04-25T05:45:01;16.92;;;7.13;;
30173;SDS011;16985;50.814;8.530;2023-04-25T05:47:51;19.27;;;7.07;;
30173;SDS011;16985;50.814;8.530;2023-04-25T05:50:46;15.68;;;7.68;;
30173;SDS011;16985;50.814;8.530;2023-04-25T05:53:32;12.43;;;7.18;;
30173;SDS011;16985;50.814;8.530;2023-04-25T05:56:00;11.15;;;6.70;;
30173;SDS011;16985;50.814;8.530;2023-04-25T05:58:27;14.73;;;6.82;;
30173;SDS011;16985;50.814;8.530;2023-04-25T06:00:54;16.98;;;6.90;;
30173;SDS011;16985;50.814;8.530;2023-04-25T06:03:21;12.95;;;7.65;;
30173;SDS011;16985;50.814;8.530;2023-04-25T06:05:48;20.50;;;8.35;;
30173;SDS011;16985;50.814;8.530;2023-04-25T06:08:15;13.82;;;7.05;;
30173;SDS011;16985;50.814;8.530;2023-04-25T06:10:41;13.02;;;7.18;;
30173;SDS011;16985;50.814;8.530;2023-04-25T06:13:08;16.65;;;6.90;;
30173;SDS011;16985;50.814;8.530;2023-04-25T06:15:35;15.77;;;7.40;;
30173;SDS011;16985;50.814;8.530;2023-04-25T06:18:01;15.40;;;7.53;;
30173;SDS011;16985;50.814;8.530;2023-04-25T06:20:28;13.85;;;7.57;;
30173;SDS011;16985;50.814;8.530;2023-04-25T06:22:56;15.80;;;8.27;;
30173;SDS011;16985;50.814;8.530;2023-04-25T06:25:31;14.77;;;7.38;;
30173;SDS011;16985;50.814;8.530;2023-04-25T06:27:58;12.45;;;6.22;;
30173;SDS011;16985;50.814;8.530;2023-04-25T06:30:24;12.23;;;7.10;;
30173;SDS011;16985;50.814;8.530;2023-04-25T06:32:55;15.52;;;8.43;;
30173;SDS011;16985;50.814;8.530;2023-04-25T06:35:22;13.85;;;6.28;;
30173;SDS011;16985;50.814;8.530;2023-04-25T06:37:49;13.20;;;6.70;;
30173;SDS011;16985;50.814;8.530;2023-04-25T06:40:17;11.13;;;5.78;;
30173;SDS011;16985;50.814;8.530;2023-04-25T06:42:43;10.80;;;5.45;;
30173;SDS011;16985;50.814;8.530;2023-04-25T06:45:29;7.57;;;4.63;;
30173;SDS011;16985;50.814;8.530;2023-04-25T06:47:57;11.70;;;4.97;;
30173;SDS011;16985;50.814;8.530;2023-04-25T06:50:23;9.27;;;4.65;;
30173;SDS011;16985;50.814;8.530;2023-04-25T06:52:48;5.63;;;3.70;;
30173;SDS011;16985;50.814;8.530;2023-04-25T06:55:14;6.30;;;4.40;;
30173;SDS011;16985;50.814;8.530;2023-04-25T06:57:55;6.00;;;4.15;;
30173;SDS011;16985;50.814;8.530;2023-04-25T07:00:50;6.00;;;4.07;;
30173;SDS011;16985;50.814;8.530;2023-04-25T07:03:18;9.63;;;4.43;;
30173;SDS011;16985;50.814;8.530;2023-04-25T07:05:45;6.55;;;4.00;;
30173;SDS011;16985;50.814;8.530;2023-04-25T07:08:12;13.43;;;4.13;;
30173;SDS011;16985;50.814;8.530;2023-04-25T07:10:37;11.25;;;4.15;;
30173;SDS011;16985;50.814;8.530;2023-04-25T07:13:04;8.80;;;3.88;;
30173;SDS011;16985;50.814;8.530;2023-04-25T07:15:29;12.00;;;5.10;;
30173;SDS011;16985;50.814;8.530;2023-04-25T07:17:57;6.72;;;4.15;;
30173;SDS011;16985;50.814;8.530;2023-04-25T07:20:23;9.25;;;3.58;;
30173;SDS011;16985;50.814;8.530;2023-04-25T07:22:49;8.80;;;4.10;;
30173;SDS011;16985;50.814;8.530;2023-04-25T07:25:15;15.38;;;4.00;;
30173;SDS011;16985;50.814;8.530;2023-04-25T07:27:42;7.95;;;4.10;;
30173;SDS011;16985;50.814;8.530;2023-04-25T07:30:14;6.15;;;3.70;;
30173;SDS011;16985;50.814;8.530;2023-04-25T07:32:40;9.88;;;4.45;;
30173;SDS011;16985;50.814;8.530;2023-04-25T07:35:06;9.68;;;4.45;;
30173;SDS011;16985;50.814;8.530;2023-04-25T07:37:36;9.45;;;4.22;;
30173;SDS011;16985;50.814;8.530;2023-04-25T07:40:08;10.82;;;3.75;;
30173;SDS011;16985;50.814;8.530;2023-04-25T07:42:38;7.32;;;4.10;;
30173;SDS011;16985;50.814;8.530;2023-04-25T07:45:05;9.35;;;4.30;;
30173;SDS011;16985;50.814;8.530;2023-04-25T07:47:31;7.78;;;4.30;;
30173;SDS011;16985;50.814;8.530;2023-04-25T07:49:57;9.38;;;3.97;;
30173;SDS011;16985;50.814;8.530;2023-04-25T07:52:24;7.28;;;3.67;;
30173;SDS011;16985;50.814;8.530;2023-04-25T07:54:57;5.47;;;3.60;;
30173;SDS011;16985;50.814;8.530;2023-04-25T07:57:31;10.27;;;4.10;;
30173;SDS011;16985;50.814;8.530;2023-04-25T07:59:57;9.50;;;3.90;;
30173;SDS011;16985;50.814;8.530;2023-04-25T08:02:23;16.38;;;3.53;;
30173;SDS011;16985;50.814;8.530;2023-04-25T08:04:51;11.40;;;3.47;;
30173;SDS011;16985;50.814;8.530;2023-04-25T08:07:18;11.63;;;3.55;;
30173;SDS011;16985;50.814;8.530;2023-04-25T08:09:49;9.60;;;3.20;;
30173;SDS011;16985;50.814;8.530;2023-04-25T08:12:22;13.40;;;3.90;;
30173;SDS011;16985;50.814;8.530;2023-04-25T08:14:48;9.25;;;3.03;;
30173;SDS011;16985;50.814;8.530;2023-04-25T08:17:14;9.85;;;3.08;;
30173;SDS011;16985;50.814;8.530;2023-04-25T08:19:40;9.07;;;3.72;;
30173;SDS011;16985;50.814;8.530;2023-04-25T08:22:12;6.22;;;2.83;;
30173;SDS011;16985;50.814;8.530;2023-04-25T08:24:50;8.38;;;3.63;;
30173;SDS011;16985;50.814;8.530;2023-04-25T08:27:17;6.47;;;2.70;;
30173;SDS011;16985;50.814;8.530;2023-04-25T08:29:43;5.70;;;3.72;;
30173;SDS011;16985;50.814;8.530;2023-04-25T08:32:09;12.05;;;2.83;;
30173;SDS011;16985;50.814;8.530;2023-04-25T08:35:29;16.17;;;3.40;;
30173;SDS011;16985;50.814;8.530;2023-04-25T08:37:55;9.10;;;2.72;;
30173;SDS011;16985;50.814;8.530;2023-04-25T08:40:22;10.65;;;3.30;;
30173;SDS011;16985;50.814;8.530;2023-04-25T08:42:57;6.63;;;2.67;;
30173;SDS011;16985;50.814;8.530;2023-04-25T08:45:24;7.60;;;3.20;;
30173;SDS011;16985;50.814;8.530;2023-04-25T08:47:53;11.20;;;2.85;;
30173;SDS011;16985;50.814;8.530;2023-04-25T08:50:22;10.23;;;3.25;;
30173;SDS011;16985;50.814;8.530;2023-04-25T08:52:50;14.60;;;3.42;;
30173;SDS011;16985;50.814;8.530;2023-04-25T08:55:20;9.57;;;3.13;;
30173;SDS011;16985;50.814;8.530;2023-04-25T08:57:49;8.75;;;3.05;;
30173;SDS011;16985;50.814;8.530;2023-04-25T09:00:17;11.52;;;2.70;;
30173;SDS011;16985;50.814;8.530;2023-04-25T09:05:14;11.45;;;3.60;;
30173;SDS011;16985;50.814;8.530;2023-04-25T09:07:41;7.97;;;2.85;;
30173;SDS011;16985;50.814;8.530;2023-04-25T09:10:07;7.38;;;2.85;;
30173;SDS011;16985;50.814;8.530;2023-04-25T09:12:36;15.02;;;3.20;;
30173;SDS011;16985;50.814;8.530;2023-04-25T09:15:05;9.82;;;3.15;;
30173;SDS011;16985;50.814;8.530;2023-04-25T09:18:02;13.15;;;3.28;;
30173;SDS011;16985;50.814;8.530;2023-04-25T09:20:44;11.45;;;3.55;;
30173;SDS011;16985;50.814;8.530;2023-04-25T09:23:10;14.77;;;3.13;;
30173;SDS011;16985;50.814;8.530;2023-04-25T09:25:37;9.70;;;3.60;;
30173;SDS011;16985;50.814;8.530;2023-04-25T09:28:08;12.18;;;4.20;;
30173;SDS011;16985;50.814;8.530;2023-04-25T09:30:36;15.65;;;4.53;;
30173;SDS011;16985;50.814;8.530;2023-04-25T09:33:11;17.40;;;4.47;;
30173;SDS011;16985;50.814;8.530;2023-04-25T09:35:42;8.07;;;3.40;;
30173;SDS011;16985;50.814;8.530;2023-04-25T09:38:18;9.55;;;3.22;;
30173;SDS011;16985;50.814;8.530;2023-04-25T09:41:07;11.00;;;2.90;;
30173;SDS011;16985;50.814;8.530;2023-04-25T09:43:39;13.63;;;3.13;;
30173;SDS011;16985;50.814;8.530;2023-04-25T09:46:09;9.57;;;2.97;;
30173;SDS011;16985;50.814;8.530;2023-04-25T09:48:39;9.80;;;3.03;;
30173;SDS011;16985;50.814;8.530;2023-04-25T09:51:09;8.20;;;2.90;;
30173;SDS011;16985;50.814;8.530;2023-04-25T09:53:43;5.10;;;2.45;;
30173;SDS011;16985;50.814;8.530;2023-04-25T09:56:32;8.77;;;2.38;;
30173;SDS011;16985;50.814;8.530;2023-04-25T09:59:05;9.00;;;3.17;;
30173;SDS011;16985;50.814;8.530;2023-04-25T10:01:33;6.63;;;2.38;;
30173;SDS011;16985;50.814;8.530;2023-04-25T10:04:11;6.88;;;2.45;;
30173;SDS011;16985;50.814;8.530;2023-04-25T10:06:54;8.50;;;2.63;;
30173;SDS011;16985;50.814;8.530;2023-04-25T10:09:21;6.28;;;2.90;;
30173;SDS011;16985;50.814;8.530;2023-04-25T10:11:51;6.00;;;2.28;;
30173;SDS011;16985;50.814;8.530;2023-04-25T10:14:18;7.00;;;3.03;;
30173;SDS011;16985;50.814;8.530;2023-04-25T10:17:00;7.60;;;2.58;;
30173;SDS011;16985;50.814;8.530;2023-04-25T10:19:26;7.18;;;2.60;;
30173;SDS011;16985;50.814;8.530;2023-04-25T10:22:02;5.75;;;2.38;;
30173;SDS011;16985;50.814;8.530;2023-04-25T10:24:43;8.68;;;1.92;;
30173;SDS011;16985;50.814;8.530;2023-04-25T10:27:11;7.53;;;2.90;;
30173;SDS011;16985;50.814;8.530;2023-04-25T10:29:37;13.65;;;4.63;;
30173;SDS011;16985;50.814;8.530;2023-04-25T10:32:03;11.35;;;2.95;;
30173;SDS011;16985;50.814;8.530;2023-04-25T10:34:40;13.50;;;2.65;;
30173;SDS011;16985;50.814;8.530;2023-04-25T10:39:38;6.32;;;2.30;;
30173;SDS011;16985;50.814;8.530;2023-04-25T10:42:06;9.30;;;2.60;;
30173;SDS011;16985;50.814;8.530;2023-04-25T10:44:36;13.43;;;2.75;;
30173;SDS011;16985;50.814;8.530;2023-04-25T10:47:05;4.72;;;2.50;;
30173;SDS011;16985;50.814;8.530;2023-04-25T10:49:37;9.15;;;2.47;;
30173;SDS011;16985;50.814;8.530;2023-04-25T10:52:13;7.75;;;2.45;;
30173;SDS011;16985;50.814;8.530;2023-04-25T10:57:31;5.13;;;2.63;;
30173;SDS011;16985;50.814;8.530;2023-04-25T11:00:06;4.82;;;2.10;;
30173;SDS011;16985;50.814;8.530;2023-04-25T11:02:40;7.97;;;2.70;;
30173;SDS011;16985;50.814;8.530;2023-04-25T11:05:20;5.47;;;2.58;;
30173;SDS011;16985;50.814;8.530;2023-04-25T11:07:58;5.55;;;2.58;;
30173;SDS011;16985;50.814;8.530;2023-04-25T11:10:25;9.80;;;2.38;;
30173;SDS011;16985;50.814;8.530;2023-04-25T11:12:56;9.05;;;2.63;;
30173;SDS011;16985;50.814;8.530;2023-04-25T11:15:23;8.15;;;2.38;;
30173;SDS011;16985;50.814;8.530;2023-04-25T11:17:53;7.55;;;2.65;;
30173;SDS011;16985;50.814;8.530;2023-04-25T11:20:20;7.95;;;2.53;;
30173;SDS011;16985;50.814;8.530;2023-04-25T11:22:46;6.60;;;2.80;;
30173;SDS011;16985;50.814;8.530;2023-04-25T11:25:13;10.23;;;3.22;;
30173;SDS011;16985;50.814;8.530;2023-04-25T11:27:50;6.60;;;2.13;;
30173;SDS011;16985;50.814;8.530;2023-04-25T11:30:18;6.25;;;2.60;;
30173;SDS011;16985;50.814;8.530;2023-04-25T11:32:45;10.05;;;2.55;;
30173;SDS011;16985;50.814;8.530;2023-04-25T11:35:12;13.32;;;4.00;;
30173;SDS011;16985;50.814;8.530;2023-04-25T11:37:38;11.27;;;2.72;;
30173;SDS011;16985;50.814;8.530;2023-04-25T11:40:05;13.48;;;3.50;;
30173;SDS011;16985;50.814;8.530;2023-04-25T11:42:32;11.65;;;3.38;;
30173;SDS011;16985;50.814;8.530;2023-04-25T11:44:58;9.48;;;2.75;;
30173;SDS011;16985;50.814;8.530;2023-04-25T11:47:29;10.65;;;2.67;;
30173;SDS011;16985;50.814;8.530;2023-04-25T11:49:57;10.70;;;2.85;;
30173;SDS011;16985;50.814;8.530;2023-04-25T11:52:25;5.13;;;2.33;;
30173;SDS011;16985;50.814;8.530;2023-04-25T11:55:01;9.75;;;3.10;;
30173;SDS011;16985;50.814;8.530;2023-04-25T11:57:30;7.75;;;3.13;;
30173;SDS011;16985;50.814;8.530;2023-04-25T12:00:04;5.30;;;2.70;;
30173;SDS011;16985;50.814;8.530;2023-04-25T12:02:37;8.63;;;2.50;;
30173;SDS011;16985;50.814;8.530;2023-04-25T12:05:07;8.43;;;2.88;;
30173;SDS011;16985;50.814;8.530;2023-04-25T12:07:34;6.40;;;3.42;;
30173;SDS011;16985;50.814;8.530;2023-04-25T12:10:05;4.53;;;2.10;;
30173;SDS011;16985;50.814;8.530;2023-04-25T12:12:36;15.90;;;4.97;;
30173;SDS011;16985;50.814;8.530;2023-04-25T12:17:41;6.30;;;2.38;;
30173;SDS011;16985;50.814;8.530;2023-04-25T12:20:10;6.45;;;2.40;;
30173;SDS011;16985;50.814;8.530;2023-04-25T12:22:42;9.18;;;2.90;;
30173;SDS011;16985;50.814;8.530;2023-04-25T12:25:12;12.75;;;3.33;;
30173;SDS011;16985;50.814;8.530;2023-04-25T12:33:26;9.38;;;2.38;;
30173;SDS011;16985;50.814;8.530;2023-04-25T12:35:54;9.55;;;2.83;;
30173;SDS011;16985;50.814;8.530;2023-04-25T12:38:24;10.35;;;4.30;;
30173;SDS011;16985;50.814;8.530;2023-04-25T12:40:52;11.65;;;3.85;;
30173;SDS011;16985;50.814;8.530;2023-04-25T12:43:19;10.85;;;3.88;;
30173;SDS011;16985;50.814;8.530;2023-04-25T12:45:48;9.00;;;2.35;;
30173;SDS011;16985;50.814;8.530;2023-04-25T12:48:16;6.05;;;2.22;;
30173;SDS011;16985;50.814;8.530;2023-04-25T12:50:42;6.75;;;2.08;;
30173;SDS011;16985;50.814;8.530;2023-04-25T12:53:08;7.13;;;2.08;;
30173;SDS011;16985;50.814;8.530;2023-04-25T12:55:35;7.55;;;2.60;;
30173;SDS011;16985;50.814;8.530;2023-04-25T12:58:01;6.47;;;2.25;;
30173;SDS011;16985;50.814;8.530;2023-04-25T13:00:28;9.73;;;3.25;;
30173;SDS011;16985;50.814;8.530;2023-04-25T13:02:54;8.93;;;2.47;;
30173;SDS011;16985;50.814;8.530;2023-04-25T13:05:20;5.85;;;2.00;;
30173;SDS011;16985;50.814;8.530;2023-04-25T13:07:46;13.23;;;3.20;;
30173;SDS011;16985;50.814;8.530;2023-04-25T13:10:12;5.05;;;2.20;;
30173;SDS011;16985;50.814;8.530;2023-04-25T13:12:38;7.75;;;2.95;;
30173;SDS011;16985;50.814;8.530;2023-04-25T13:15:03;7.65;;;1.75;;
30173;SDS011;16985;50.814;8.530;2023-04-25T13:17:30;8.65;;;2.08;;
30173;SDS011;16985;50.814;8.530;2023-04-25T13:19:56;10.00;;;2.08;;
30173;SDS011;16985;50.814;8.530;2023-04-25T13:22:21;4.28;;;1.88;;
30173;SDS011;16985;50.814;8.530;2023-04-25T13:24:47;7.03;;;1.95;;
30173;SDS011;16985;50.814;8.530;2023-04-25T13:27:13;4.95;;;2.15;;
30173;SDS011;16985;50.814;8.530;2023-04-25T13:29:39;4.93;;;2.00;;
30173;SDS011;16985;50.814;8.530;2023-04-25T13:32:05;6.07;;;2.05;;
30173;SDS011;16985;50.814;8.530;2023-04-25T13:34:32;4.20;;;1.92;;
30173;SDS011;16985;50.814;8.530;2023-04-25T13:36:58;7.88;;;1.88;;
30173;SDS011;16985;50.814;8.530;2023-04-25T13:39:24;9.30;;;2.55;;
30173;SDS011;16985;50.814;8.530;2023-04-25T13:41:50;2.97;;;1.55;;
30173;SDS011;16985;50.814;8.530;2023-04-25T13:44:15;10.90;;;2.97;;
30173;SDS011;16985;50.814;8.530;2023-04-25T13:46:41;13.85;;;3.28;;
30173;SDS011;16985;50.814;8.530;2023-04-25T13:49:07;8.43;;;2.42;;
30173;SDS011;16985;50.814;8.530;2023-04-25T13:51:33;5.72;;;2.83;;
30173;SDS011;16985;50.814;8.530;2023-04-25T13:54:14;8.07;;;2.20;;
30173;SDS011;16985;50.814;8.530;2023-04-25T13:56:40;9.02;;;2.25;;
30173;SDS011;16985;50.814;8.530;2023-04-25T13:59:07;12.73;;;2.65;;
30173;SDS011;16985;50.814;8.530;2023-04-25T14:01:32;7.72;;;1.92;;
30173;SDS011;16985;50.814;8.530;2023-04-25T14:04:00;9.00;;;2.10;;
30173;SDS011;16985;50.814;8.530;2023-04-25T14:06:28;8.43;;;1.85;;
30173;SDS011;16985;50.814;8.530;2023-04-25T14:08:55;7.93;;;2.42;;
30173;SDS011;16985;50.814;8.530;2023-04-25T14:11:21;3.00;;;2.00;;
30173;SDS011;16985;50.814;8.530;2023-04-25T14:13:47;5.53;;;2.28;;
30173;SDS011;16985;50.814;8.530;2023-04-25T14:16:14;8.73;;;2.10;;
30173;SDS011;16985;50.814;8.530;2023-04-25T14:18:55;4.95;;;2.05;;
30173;SDS011;16985;50.814;8.530;2023-04-25T14:21:21;6.30;;;2.20;;
30173;SDS011;16985;50.814;8.530;2023-04-25T14:23:47;7.28;;;2.45;;
30173;SDS011;16985;50.814;8.530;2023-04-25T14:26:13;8.73;;;2.28;;
30173;SDS011;16985;50.814;8.530;2023-04-25T14:28:38;5.20;;;1.90;;
30173;SDS011;16985;50.814;8.530;2023-04-25T14:31:04;6.30;;;2.35;;
30173;SDS011;16985;50.814;8.530;2023-04-25T14:33:30;4.72;;;2.17;;
30173;SDS011;16985;50.814;8.530;2023-04-25T14:36:11;4.47;;;2.03;;
30173;SDS011;16985;50.814;8.530;2023-04-25T14:38:36;9.95;;;2.33;;
30173;SDS011;16985;50.814;8.530;2023-04-25T14:41:02;5.60;;;2.00;;
30173;SDS011;16985;50.814;8.530;2023-04-25T14:43:28;5.28;;;2.47;;
30173;SDS011;16985;50.814;8.530;2023-04-25T14:45:54;3.70;;;1.80;;
30173;SDS011;16985;50.814;8.530;2023-04-25T14:48:20;4.13;;;1.83;;
30173;SDS011;16985;50.814;8.530;2023-04-25T14:50:47;4.43;;;1.67;;
30173;SDS011;16985;50.814;8.530;2023-04-25T14:53:12;9.73;;;2.25;;
30173;SDS011;16985;50.814;8.530;2023-04-25T14:55:38;7.70;;;1.90;;
30173;SDS011;16985;50.814;8.530;2023-04-25T14:58:05;7.30;;;1.75;;
30173;SDS011;16985;50.814;8.530;2023-04-25T15:00:32;8.35;;;1.80;;
30173;SDS011;16985;50.814;8.530;2023-04-25T15:02:58;9.27;;;2.10;;
30173;SDS011;16985;50.814;8.530;2023-04-25T15:05:24;4.05;;;1.63;;
30173;SDS011;16985;50.814;8.530;2023-04-25T15:07:50;12.80;;;2.60;;
30173;SDS011;16985;50.814;8.530;2023-04-25T15:10:19;7.47;;;1.70;;
30173;SDS011;16985;50.814;8.530;2023-04-25T15:12:45;3.67;;;1.70;;
30173;SDS011;16985;50.814;8.530;2023-04-25T15:15:11;7.47;;;2.20;;
30173;SDS011;16985;50.814;8.530;2023-04-25T15:17:37;3.40;;;1.60;;